Time;durP1;ratioP1;P1;durP2;ratioP2;P2;SDS_P1;SDS_P2;PMS_P1;PMS_P2;Temp;Humidity;BMP_temperature;BMP_pressure;BME280_temperature;BME280_humidity;BME280_pressure;Samples;Min_cycle;Max_cycle;Signal;HPM_P1;HPM_P2
2021/12/16 00:03:28;;;;;;;68.03;48.30;;;;;;;;;;4954432;29;20411;-88
2021/12/16 00:06:28;;;;;;;61.00;48.03;;;;;;;;;;4942523;29;20955;-88
2021/12/16 00:08:56;;;;;;;63.53;49.10;;;;;;;;;;4953876;29;20825;-88
2021/12/16 00:19:23;;;;;;;67.17;48.50;;;;;;;;;;4954053;29;20454;-87
2021/12/16 00:31:15;;;;;;;53.07;46.63;;;;;;;;;;4996840;28;20414;-88
2021/12/16 00:33:46;;;;;;;63.73;46.83;;;;;;;;;;4996867;28;20415;-88
2021/12/16 00:36:14;;;;;;;56.67;45.90;;;;;;;;;;4997339;28;20429;-87
2021/12/16 00:38:43;;;;;;;53.43;46.23;;;;;;;;;;4996749;28;20437;-87
2021/12/16 00:41:11;;;;;;;59.93;45.73;;;;;;;;;;4996459;28;20465;-88
2021/12/16 00:43:47;;;;;;;74.27;48.80;;;;;;;;;;4997723;28;20430;-88
2021/12/16 00:46:30;;;;;;;65.77;46.97;;;;;;;;;;4977118;28;20514;-87
2021/12/16 00:54:31;;;;;;;70.83;50.63;;;;;;;;;;4978968;28;20437;-88
2021/12/16 00:57:04;;;;;;;63.80;47.47;;;;;;;;;;4983708;28;20924;-88
2021/12/16 00:59:36;;;;;;;63.43;47.40;;;;;;;;;;4987358;28;20500;-88
2021/12/16 01:02:16;;;;;;;64.80;48.80;;;;;;;;;;4980328;28;20498;-87
2021/12/16 01:35:23;;;;;;;58.50;45.77;;;;;;;;;;4919569;29;20397;-88
2021/12/16 01:41:14;;;;;;;61.30;48.50;;;;;;;;;;4902980;29;20470;-88
2021/12/16 01:49:26;;;;;;;61.10;45.23;;;;;;;;;;4891770;28;20492;-88
2021/12/16 01:54:54;;;;;;;62.60;47.00;;;;;;;;;;4975281;28;20440;-88
2021/12/16 01:57:30;;;;;;;61.03;46.90;;;;;;;;;;4978749;28;20512;-88
2021/12/16 02:00:03;;;;;;;51.10;43.03;;;;;;;;;;4978872;28;20516;-87
2021/12/16 02:02:39;;;;;;;56.73;45.37;;;;;;;;;;4977071;28;20461;-87
2021/12/16 02:05:23;;;;;;;58.17;43.53;;;;;;;;;;4977930;28;20497;-88
2021/12/16 02:08:14;;;;;;;60.73;45.43;;;;;;;;;;4977862;28;20440;-88
2021/12/16 02:10:47;;;;;;;53.17;42.57;;;;;;;;;;4977741;28;20427;-88
2021/12/16 02:13:42;;;;;;;54.80;45.00;;;;;;;;;;4977427;28;20419;-88
2021/12/16 02:27:36;;;;;;;56.33;44.70;;;;;;;;;;4976987;28;20425;-88
2021/12/16 02:32:56;;;;;;;55.83;44.40;;;;;;;;;;4970269;28;20531;-88
2021/12/16 02:35:32;;;;;;;51.13;41.73;;;;;;;;;;4977238;28;20477;-87
2021/12/16 02:38:03;;;;;;;56.00;43.33;;;;;;;;;;4976945;28;20452;-88
2021/12/16 02:40:31;;;;;;;53.57;43.73;;;;;;;;;;4976785;28;20573;-88
2021/12/16 02:43:05;;;;;;;54.00;43.60;;;;;;;;;;4976629;28;20423;-88
2021/12/16 02:48:31;;;;;;;53.87;44.50;;;;;;;;;;5015797;28;20402;-88
2021/12/16 02:51:00;;;;;;;56.93;48.10;;;;;;;;;;5015651;28;20448;-87
2021/12/16 02:53:29;;;;;;;57.83;45.90;;;;;;;;;;5015799;28;20445;-88
2021/12/16 02:55:56;;;;;;;55.10;48.60;;;;;;;;;;5015757;28;20447;-88
2021/12/16 02:58:24;;;;;;;60.90;47.40;;;;;;;;;;5015577;28;20476;-87
2021/12/16 03:00:53;;;;;;;55.10;47.47;;;;;;;;;;5015659;28;20483;-87
2021/12/16 03:03:21;;;;;;;60.90;48.90;;;;;;;;;;5015440;28;20450;-88
2021/12/16 03:05:48;;;;;;;62.77;46.67;;;;;;;;;;5015563;28;20463;-88
2021/12/16 03:08:15;;;;;;;67.03;47.50;;;;;;;;;;5015350;28;20452;-88
2021/12/16 03:11:03;;;;;;;57.33;49.80;;;;;;;;;;5015436;28;20430;-88
2021/12/16 03:13:34;;;;;;;63.53;49.50;;;;;;;;;;5015364;28;20506;-88
2021/12/16 03:18:49;;;;;;;68.83;51.40;;;;;;;;;;5015186;28;20933;-87
2021/12/16 03:21:27;;;;;;;62.97;47.90;;;;;;;;;;5015196;28;20475;-88
2021/12/16 03:24:16;;;;;;;62.63;50.67;;;;;;;;;;5013999;28;20819;-87
2021/12/16 03:27:22;;;;;;;72.97;50.13;;;;;;;;;;5015306;28;20522;-86
2021/12/16 03:30:04;;;;;;;63.47;50.90;;;;;;;;;;5014877;28;20421;-88
2021/12/16 03:35:32;;;;;;;68.50;51.50;;;;;;;;;;4954766;29;20478;-88
2021/12/16 03:38:04;;;;;;;64.63;48.97;;;;;;;;;;4954353;29;20466;-88
2021/12/16 03:40:32;;;;;;;65.90;49.13;;;;;;;;;;4954121;28;20489;-88
2021/12/16 03:43:02;;;;;;;62.63;50.30;;;;;;;;;;4954961;29;20931;-88
2021/12/16 03:48:18;;;;;;;62.50;47.83;;;;;;;;;;4954354;29;20401;-88
2021/12/16 03:50:46;;;;;;;63.80;48.10;;;;;;;;;;4954619;29;20805;-86
2021/12/16 03:53:16;;;;;;;63.90;46.57;;;;;;;;;;4954418;29;20757;-88
2021/12/16 03:55:44;;;;;;;67.53;49.13;;;;;;;;;;4954436;29;20424;-88
2021/12/16 03:58:13;;;;;;;65.30;45.80;;;;;;;;;;4954346;28;20450;-88
2021/12/16 04:00:43;;;;;;;70.83;49.87;;;;;;;;;;4954374;29;20486;-88
2021/12/16 04:03:10;;;;;;;73.90;50.23;;;;;;;;;;4954209;29;20450;-88
2021/12/16 04:05:39;;;;;;;75.03;52.17;;;;;;;;;;4954188;29;20428;-88
2021/12/16 04:08:06;;;;;;;71.67;50.60;;;;;;;;;;4954148;29;20439;-88
2021/12/16 04:10:36;;;;;;;71.30;50.87;;;;;;;;;;5006866;28;20938;-87
2021/12/16 04:13:05;;;;;;;72.37;49.37;;;;;;;;;;5014474;28;20445;-88
2021/12/16 04:15:34;;;;;;;68.27;47.40;;;;;;;;;;5013899;28;20443;-88
2021/12/16 04:18:01;;;;;;;71.63;52.23;;;;;;;;;;5014220;28;20444;-88
2021/12/16 04:20:29;;;;;;;67.57;50.83;;;;;;;;;;5013896;28;20458;-87
2021/12/16 04:22:57;;;;;;;78.73;51.90;;;;;;;;;;5014169;28;20829;-88
2021/12/16 04:25:26;;;;;;;61.70;47.63;;;;;;;;;;5014149;28;20403;-88
2021/12/16 04:27:54;;;;;;;70.87;49.80;;;;;;;;;;5013214;28;20811;-88
2021/12/16 04:30:23;;;;;;;63.50;47.13;;;;;;;;;;5014127;28;20504;-88
2021/12/16 04:32:52;;;;;;;69.07;48.93;;;;;;;;;;5013984;28;20440;-88
2021/12/16 04:35:20;;;;;;;68.73;49.80;;;;;;;;;;5014173;28;20884;-87
2021/12/16 04:37:49;;;;;;;75.20;50.83;;;;;;;;;;5014019;28;20447;-88
2021/12/16 04:40:17;;;;;;;66.93;47.70;;;;;;;;;;5013764;28;20888;-88
2021/12/16 04:42:45;;;;;;;61.27;45.23;;;;;;;;;;5014044;28;20521;-88
2021/12/16 04:45:14;;;;;;;68.30;48.83;;;;;;;;;;5013644;28;20462;-86
2021/12/16 04:47:42;;;;;;;66.33;48.23;;;;;;;;;;5013878;28;20832;-88
2021/12/16 04:50:12;;;;;;;66.57;47.03;;;;;;;;;;5013431;28;20448;-88
2021/12/16 04:52:39;;;;;;;68.30;48.80;;;;;;;;;;5013461;28;20415;-88
2021/12/16 04:55:08;;;;;;;80.27;50.07;;;;;;;;;;5012565;28;20500;-88
2021/12/16 04:57:36;;;;;;;62.63;48.27;;;;;;;;;;5013560;28;20489;-88
2021/12/16 05:00:04;;;;;;;73.10;49.20;;;;;;;;;;5013647;28;20541;-87
2021/12/16 05:02:31;;;;;;;70.27;48.20;;;;;;;;;;5013578;28;20415;-88
2021/12/16 05:04:59;;;;;;;75.80;52.53;;;;;;;;;;5013705;28;20477;-88
2021/12/16 05:07:27;;;;;;;68.57;47.87;;;;;;;;;;5013757;28;20439;-87
2021/12/16 05:10:06;;;;;;;69.20;48.40;;;;;;;;;;5013646;28;20831;-88
2021/12/16 05:12:36;;;;;;;69.20;48.93;;;;;;;;;;5012448;28;20447;-88
2021/12/16 05:15:05;;;;;;;71.93;49.03;;;;;;;;;;5012174;28;20461;-87
2021/12/16 05:17:38;;;;;;;66.87;47.93;;;;;;;;;;5012432;28;20439;-88
2021/12/16 05:20:09;;;;;;;71.00;48.73;;;;;;;;;;5012057;28;20741;-88
2021/12/16 05:25:34;;;;;;;72.53;49.10;;;;;;;;;;5013203;28;20977;-87
2021/12/16 05:28:01;;;;;;;73.27;48.90;;;;;;;;;;5013464;28;20488;-88
2021/12/16 05:30:29;;;;;;;72.30;49.50;;;;;;;;;;5013581;28;20428;-86
2021/12/16 05:32:56;;;;;;;74.13;50.47;;;;;;;;;;5011949;28;20454;-88
2021/12/16 05:35:24;;;;;;;72.73;50.07;;;;;;;;;;5013739;28;20443;-87
2021/12/16 05:37:53;;;;;;;74.83;49.67;;;;;;;;;;5013547;28;20451;-88
2021/12/16 05:40:23;;;;;;;76.27;52.00;;;;;;;;;;5012312;28;20461;-88
2021/12/16 05:42:52;;;;;;;78.63;49.40;;;;;;;;;;5012135;28;20491;-88
2021/12/16 05:45:19;;;;;;;87.30;51.33;;;;;;;;;;5012875;28;21000;-88
2021/12/16 05:47:47;;;;;;;87.00;51.67;;;;;;;;;;5013370;28;20456;-88
2021/12/16 05:50:14;;;;;;;88.00;52.43;;;;;;;;;;5013190;28;20423;-86
2021/12/16 05:52:42;;;;;;;91.50;53.63;;;;;;;;;;5013702;28;20443;-88
2021/12/16 05:55:12;;;;;;;91.33;52.57;;;;;;;;;;5013302;28;20477;-88
2021/12/16 05:57:40;;;;;;;93.77;53.67;;;;;;;;;;5012962;28;20973;-87
2021/12/16 06:00:09;;;;;;;100.53;54.30;;;;;;;;;;5012923;28;20470;-88
2021/12/16 06:02:36;;;;;;;93.73;55.27;;;;;;;;;;5014325;28;20489;-88
2021/12/16 06:05:04;;;;;;;109.32;56.05;;;;;;;;;;5016874;28;20448;-86
2021/12/16 06:07:31;;;;;;;99.17;53.73;;;;;;;;;;5015726;28;20197;-88
2021/12/16 06:09:59;;;;;;;95.30;54.67;;;;;;;;;;5016772;28;20910;-87
2021/12/16 06:12:28;;;;;;;92.27;54.30;;;;;;;;;;5016683;28;20806;-88
2021/12/16 06:15:13;;;;;;;96.73;53.63;;;;;;;;;;5016548;28;21029;-87
2021/12/16 06:28:46;;;;;;;93.07;53.17;;;;;;;;;;4975268;28;20487;-87
2021/12/16 06:31:14;;;;;;;83.30;52.85;;;;;;;;;;4975121;28;20449;-87
2021/12/16 06:33:41;;;;;;;101.27;54.03;;;;;;;;;;4959375;28;20240;-87
2021/12/16 06:36:09;;;;;;;100.80;53.80;;;;;;;;;;4975247;28;20432;-87
2021/12/16 06:38:36;;;;;;;91.73;54.50;;;;;;;;;;4974974;28;20967;-87
2021/12/16 06:41:03;;;;;;;94.10;54.70;;;;;;;;;;4974843;28;20561;-87
2021/12/16 06:43:32;;;;;;;99.30;52.93;;;;;;;;;;4974839;28;20777;-87
2021/12/16 06:46:04;;;;;;;99.73;54.40;;;;;;;;;;4974462;28;20492;-87
2021/12/16 06:48:34;;;;;;;96.90;55.50;;;;;;;;;;4974566;28;20845;-87
2021/12/16 06:51:07;;;;;;;90.77;54.63;;;;;;;;;;4975132;28;20436;-87
2021/12/16 06:53:47;;;;;;;103.83;55.07;;;;;;;;;;4974542;28;20444;-87
2021/12/16 06:56:19;;;;;;;93.20;53.90;;;;;;;;;;4974507;28;20441;-86
2021/12/16 06:58:50;;;;;;;86.20;52.70;;;;;;;;;;5015853;28;20458;-87
2021/12/16 07:01:36;;;;;;;99.27;53.00;;;;;;;;;;5015197;28;20462;-86
2021/12/16 07:04:04;;;;;;;93.00;53.23;;;;;;;;;;5015269;28;20426;-87
2021/12/16 07:06:33;;;;;;;83.13;53.40;;;;;;;;;;5014970;28;20418;-86
2021/12/16 07:09:02;;;;;;;87.40;53.07;;;;;;;;;;5014119;28;20418;-87
2021/12/16 07:11:30;;;;;;;88.40;51.27;;;;;;;;;;5015255;28;20905;-86
2021/12/16 07:14:00;;;;;;;100.63;53.40;;;;;;;;;;5014550;28;20449;-86
2021/12/16 07:16:30;;;;;;;89.10;50.57;;;;;;;;;;5015311;28;20842;-87
2021/12/16 07:18:58;;;;;;;92.43;52.60;;;;;;;;;;5013838;28;20501;-87
2021/12/16 07:21:25;;;;;;;91.80;53.63;;;;;;;;;;5014981;28;20512;-87
2021/12/16 07:23:53;;;;;;;84.37;51.97;;;;;;;;;;5014792;28;20452;-87
2021/12/16 07:26:21;;;;;;;98.47;53.47;;;;;;;;;;5014852;28;20422;-87
2021/12/16 07:28:49;;;;;;;77.47;49.57;;;;;;;;;;5014825;28;20464;-87
2021/12/16 07:31:16;;;;;;;78.40;49.13;;;;;;;;;;5014997;28;20430;-87
2021/12/16 07:33:45;;;;;;;81.10;53.63;;;;;;;;;;5014568;28;20439;-87
2021/12/16 07:36:18;;;;;;;85.67;52.27;;;;;;;;;;5014674;28;20464;-86
2021/12/16 07:38:46;;;;;;;76.53;51.73;;;;;;;;;;5014662;28;20430;-87
2021/12/16 07:41:16;;;;;;;109.40;54.80;;;;;;;;;;5014520;28;20983;-85
2021/12/16 07:43:55;;;;;;;79.97;51.90;;;;;;;;;;5014040;28;20471;-85
2021/12/16 07:46:23;;;;;;;88.37;55.57;;;;;;;;;;5013654;28;20417;-84
2021/12/16 07:48:52;;;;;;;91.50;53.17;;;;;;;;;;5013489;28;20881;-84
2021/12/16 07:51:19;;;;;;;91.23;53.13;;;;;;;;;;5013906;28;20511;-85
2021/12/16 07:53:47;;;;;;;85.60;51.90;;;;;;;;;;5012295;28;20430;-84
2021/12/16 07:56:14;;;;;;;76.73;50.13;;;;;;;;;;5013712;28;20436;-84
2021/12/16 07:58:42;;;;;;;77.97;53.00;;;;;;;;;;5013510;28;20454;-85
2021/12/16 08:01:10;;;;;;;80.97;52.07;;;;;;;;;;5012958;28;20450;-83
2021/12/16 08:03:38;;;;;;;79.83;52.87;;;;;;;;;;5013737;28;20423;-84
2021/12/16 08:06:09;;;;;;;87.63;54.37;;;;;;;;;;5013688;28;20415;-84
2021/12/16 08:08:37;;;;;;;85.33;53.93;;;;;;;;;;5013128;28;20814;-84
2021/12/16 08:11:04;;;;;;;89.10;50.40;;;;;;;;;;5013196;28;20465;-85
2021/12/16 08:13:32;;;;;;;84.27;52.73;;;;;;;;;;5013473;28;20494;-84
2021/12/16 08:16:01;;;;;;;86.40;52.00;;;;;;;;;;5013387;28;20413;-84
2021/12/16 08:18:28;;;;;;;102.13;51.97;;;;;;;;;;5013453;28;20429;-84
2021/12/16 08:20:56;;;;;;;83.57;52.17;;;;;;;;;;5012960;28;20440;-84
2021/12/16 08:23:25;;;;;;;75.17;50.30;;;;;;;;;;5013097;28;20429;-84
2021/12/16 08:25:52;;;;;;;88.50;50.00;;;;;;;;;;5013072;28;20498;-84
2021/12/16 08:28:21;;;;;;;87.47;55.33;;;;;;;;;;5013102;28;20439;-82
2021/12/16 08:30:51;;;;;;;92.47;53.90;;;;;;;;;;5013213;28;20455;-85
2021/12/16 08:33:18;;;;;;;90.43;53.03;;;;;;;;;;5013408;28;20418;-85
2021/12/16 08:35:47;;;;;;;90.00;51.60;;;;;;;;;;5013171;28;20810;-86
2021/12/16 08:38:16;;;;;;;85.67;51.20;;;;;;;;;;5013118;28;20443;-85
2021/12/16 08:40:47;;;;;;;96.47;52.07;;;;;;;;;;5013260;28;20509;-84
2021/12/16 08:43:15;;;;;;;108.93;52.70;;;;;;;;;;5013308;28;20463;-86
2021/12/16 08:45:43;;;;;;;89.77;54.33;;;;;;;;;;5013498;28;20484;-90
2021/12/16 08:48:11;;;;;;;88.83;53.67;;;;;;;;;;5025223;28;20448;-85
2021/12/16 08:50:40;;;;;;;95.03;53.77;;;;;;;;;;5033030;28;20442;-85
2021/12/16 08:53:09;;;;;;;88.78;53.65;;;;;;;;;;5032806;28;20486;-85
2021/12/16 08:55:37;;;;;;;108.00;54.33;;;;;;;;;;5032866;28;20622;-86
2021/12/16 08:58:06;;;;;;;111.87;57.40;;;;;;;;;;5032753;28;20473;-85
2021/12/16 09:00:36;;;;;;;99.60;54.43;;;;;;;;;;5032611;28;20741;-85
2021/12/16 09:03:04;;;;;;;108.93;56.10;;;;;;;;;;5032324;28;20508;-87
2021/12/16 09:05:32;;;;;;;113.05;55.15;;;;;;;;;;5032738;28;20440;-83
2021/12/16 09:07:59;;;;;;;110.53;58.03;;;;;;;;;;5032602;28;20680;-86
2021/12/16 09:10:30;;;;;;;104.10;54.63;;;;;;;;;;5032508;28;20446;-87
2021/12/16 09:13:02;;;;;;;112.73;57.93;;;;;;;;;;5033168;28;20468;-85
2021/12/16 09:15:33;;;;;;;122.00;58.73;;;;;;;;;;5034824;28;20536;-86
2021/12/16 09:18:01;;;;;;;103.13;57.70;;;;;;;;;;5032718;28;20917;-86
2021/12/16 09:20:29;;;;;;;104.70;56.63;;;;;;;;;;5032467;28;20425;-86
2021/12/16 09:22:56;;;;;;;103.93;56.20;;;;;;;;;;5022367;28;20546;-86
2021/12/16 09:25:23;;;;;;;128.33;59.63;;;;;;;;;;5012967;28;20463;-85
2021/12/16 09:27:51;;;;;;;103.43;60.37;;;;;;;;;;5013049;28;20806;-86
2021/12/16 09:30:20;;;;;;;95.60;57.97;;;;;;;;;;5012953;28;20439;-86
2021/12/16 09:32:51;;;;;;;108.63;54.30;;;;;;;;;;5012982;28;20418;-86
2021/12/16 09:35:18;;;;;;;90.07;52.60;;;;;;;;;;5013339;28;20447;-86
2021/12/16 09:37:46;;;;;;;92.57;55.07;;;;;;;;;;5014462;28;20931;-86
2021/12/16 09:40:19;;;;;;;100.27;56.13;;;;;;;;;;5016855;28;20440;-86
2021/12/16 09:42:46;;;;;;;101.10;55.90;;;;;;;;;;5016717;28;20518;-86
2021/12/16 09:45:15;;;;;;;96.87;54.90;;;;;;;;;;5016362;28;20469;-87
2021/12/16 09:47:44;;;;;;;104.83;58.20;;;;;;;;;;5016551;28;20893;-86
2021/12/16 09:50:14;;;;;;;98.63;57.37;;;;;;;;;;5016663;28;20478;-86
2021/12/16 09:52:41;;;;;;;111.63;56.20;;;;;;;;;;5016401;28;20784;-86
2021/12/16 09:55:10;;;;;;;97.33;58.83;;;;;;;;;;5016366;28;20203;-86
2021/12/16 09:57:38;;;;;;;92.20;53.50;;;;;;;;;;5016491;28;20739;-84
2021/12/16 10:00:06;;;;;;;113.60;60.93;;;;;;;;;;5016252;28;20993;-86
2021/12/16 10:02:34;;;;;;;96.83;55.80;;;;;;;;;;5016238;28;20461;-86
2021/12/16 10:05:02;;;;;;;86.70;54.47;;;;;;;;;;5016563;28;20818;-86
2021/12/16 10:07:33;;;;;;;111.00;56.73;;;;;;;;;;5016428;28;20443;-86
2021/12/16 10:10:01;;;;;;;89.30;55.60;;;;;;;;;;5015907;28;20410;-86
2021/12/16 10:12:34;;;;;;;81.90;52.20;;;;;;;;;;5016102;28;20464;-86
2021/12/16 10:15:06;;;;;;;91.53;54.90;;;;;;;;;;5016105;28;20927;-87
2021/12/16 10:17:34;;;;;;;96.33;56.23;;;;;;;;;;5016010;28;20489;-85
2021/12/16 10:20:03;;;;;;;96.27;54.00;;;;;;;;;;5027710;28;20446;-86
2021/12/16 10:22:38;;;;;;;91.47;53.60;;;;;;;;;;5019575;28;20469;-87
2021/12/16 10:25:19;;;;;;;88.13;52.50;;;;;;;;;;5015854;28;20421;-86
2021/12/16 10:27:56;;;;;;;97.30;55.47;;;;;;;;;;5016264;28;21072;-86
2021/12/16 10:30:24;;;;;;;98.27;52.87;;;;;;;;;;5015993;28;20483;-86
2021/12/16 10:32:53;;;;;;;94.30;52.20;;;;;;;;;;5015833;28;20839;-86
2021/12/16 10:35:27;;;;;;;106.10;55.00;;;;;;;;;;5015876;28;21011;-86
2021/12/16 10:37:57;;;;;;;89.07;53.60;;;;;;;;;;5015663;28;20506;-86
2021/12/16 10:40:30;;;;;;;79.87;48.30;;;;;;;;;;5017924;28;20446;-86
2021/12/16 10:42:58;;;;;;;90.97;53.00;;;;;;;;;;5015295;28;20477;-85
2021/12/16 10:45:26;;;;;;;101.30;52.60;;;;;;;;;;5015250;28;21021;-86
2021/12/16 10:48:14;;;;;;;103.47;55.10;;;;;;;;;;5018189;28;20791;-85
2021/12/16 10:50:56;;;;;;;97.07;54.33;;;;;;;;;;5015352;28;20424;-86
2021/12/16 10:53:42;;;;;;;88.97;52.67;;;;;;;;;;5017161;28;20443;-96
2021/12/16 10:56:11;;;;;;;123.03;56.60;;;;;;;;;;5017268;28;20523;-87
2021/12/16 10:58:50;;;;;;;111.50;53.20;;;;;;;;;;5016391;28;20472;-87
2021/12/16 11:01:31;;;;;;;92.27;52.30;;;;;;;;;;5016361;28;20451;-92
2021/12/16 11:03:59;;;;;;;97.70;55.33;;;;;;;;;;5016004;28;20453;-94
2021/12/16 11:06:30;;;;;;;108.53;56.33;;;;;;;;;;5015976;28;20444;-85
2021/12/16 11:09:17;;;;;;;96.63;51.27;;;;;;;;;;5015518;28;20904;-85
2021/12/16 11:11:47;;;;;;;104.60;54.10;;;;;;;;;;5015035;28;20522;-85
2021/12/16 11:14:14;;;;;;;112.73;58.33;;;;;;;;;;5015666;28;20459;-86
2021/12/16 11:16:42;;;;;;;114.83;59.03;;;;;;;;;;5014824;28;20531;-86
2021/12/16 11:19:09;;;;;;;107.17;55.10;;;;;;;;;;5015769;28;20433;-85
2021/12/16 11:21:40;;;;;;;110.40;56.17;;;;;;;;;;5015241;28;20466;-86
2021/12/16 11:24:23;;;;;;;93.30;52.23;;;;;;;;;;5015316;28;20507;-86
2021/12/16 11:26:52;;;;;;;101.83;52.13;;;;;;;;;;5014690;28;20414;-86
2021/12/16 11:29:22;;;;;;;107.93;57.10;;;;;;;;;;5015002;28;20487;-86
2021/12/16 11:31:51;;;;;;;106.50;53.90;;;;;;;;;;5013625;28;20426;-86
2021/12/16 11:34:19;;;;;;;101.10;54.03;;;;;;;;;;5014839;28;20936;-86
2021/12/16 11:36:49;;;;;;;96.90;51.20;;;;;;;;;;5017219;28;20414;-86
2021/12/16 11:39:17;;;;;;;99.87;53.33;;;;;;;;;;5016927;28;20456;-86
2021/12/16 11:41:46;;;;;;;105.80;57.30;;;;;;;;;;5014947;28;20975;-86
2021/12/16 11:44:17;;;;;;;105.40;56.60;;;;;;;;;;5014625;28;20993;-86
2021/12/16 11:46:46;;;;;;;86.20;51.60;;;;;;;;;;5014822;28;20423;-86
2021/12/16 11:49:16;;;;;;;91.70;54.90;;;;;;;;;;5014492;28;20463;-85
2021/12/16 11:51:44;;;;;;;105.37;54.70;;;;;;;;;;5013289;28;20437;-85
2021/12/16 11:54:17;;;;;;;86.60;52.40;;;;;;;;;;5014324;28;20411;-86
2021/12/16 11:56:46;;;;;;;105.70;69.00;;;;;;;;;;5015849;28;20224;-87
2021/12/16 11:59:21;;;;;;;94.10;51.80;;;;;;;;;;5014584;28;20975;-85
2021/12/16 12:01:50;;;;;;;79.10;47.50;;;;;;;;;;5013817;28;20986;-86
2021/12/16 12:04:18;;;;;;;99.17;67.67;;;;;;;;;;5014503;28;20440;-87
2021/12/16 12:06:46;;;;;;;82.60;52.07;;;;;;;;;;5014474;28;20425;-87
2021/12/16 12:09:13;;;;;;;87.77;55.80;;;;;;;;;;5014448;28;20514;-86
2021/12/16 12:11:43;;;;;;;196.23;138.87;;;;;;;;;;5016495;28;20490;-87
2021/12/16 12:14:12;;;;;;;85.60;57.00;;;;;;;;;;5014116;28;20505;-87
2021/12/16 12:16:40;;;;;;;102.87;76.17;;;;;;;;;;5014687;28;20502;-87
2021/12/16 12:19:14;;;;;;;71.67;48.80;;;;;;;;;;5014204;28;20414;-87
2021/12/16 12:21:48;;;;;;;72.97;48.17;;;;;;;;;;5013999;28;20436;-87
2021/12/16 12:24:17;;;;;;;74.43;49.33;;;;;;;;;;4994455;28;20491;-87
2021/12/16 12:26:47;;;;;;;77.53;51.50;;;;;;;;;;4995575;28;20435;-86
2021/12/16 12:29:16;;;;;;;86.70;51.13;;;;;;;;;;4995898;28;20423;-86
2021/12/16 12:31:45;;;;;;;74.70;49.47;;;;;;;;;;4995488;28;20436;-86
2021/12/16 12:34:14;;;;;;;67.63;47.63;;;;;;;;;;4999225;28;20450;-86
2021/12/16 12:36:43;;;;;;;78.23;52.30;;;;;;;;;;4997428;28;20763;-86
2021/12/16 12:39:12;;;;;;;66.43;47.73;;;;;;;;;;4995923;28;20412;-85
2021/12/16 12:41:41;;;;;;;73.00;48.43;;;;;;;;;;4994383;28;20443;-86
2021/12/16 12:44:09;;;;;;;72.93;49.33;;;;;;;;;;4998817;28;20471;-86
2021/12/16 12:46:38;;;;;;;79.27;50.70;;;;;;;;;;4994286;28;20448;-90
2021/12/16 12:49:07;;;;;;;84.63;50.43;;;;;;;;;;4995053;28;20974;-87
2021/12/16 12:51:38;;;;;;;66.77;48.57;;;;;;;;;;4998305;28;20444;-94
2021/12/16 12:54:17;;;;;;;78.37;49.53;;;;;;;;;;4997383;28;20444;-86
2021/12/16 12:56:44;;;;;;;73.67;49.30;;;;;;;;;;4994924;28;20895;-83
2021/12/16 12:59:15;;;;;;;64.77;47.03;;;;;;;;;;4996030;28;20441;-83
2021/12/16 13:01:43;;;;;;;70.03;48.53;;;;;;;;;;5001212;28;20463;-86
2021/12/16 13:04:13;;;;;;;72.67;49.50;;;;;;;;;;5013827;28;20472;-94
2021/12/16 13:06:55;;;;;;;74.20;48.57;;;;;;;;;;5014949;28;20418;-92
2021/12/16 13:09:29;;;;;;;71.60;48.50;;;;;;;;;;5012158;28;20433;-91
2021/12/16 13:11:57;;;;;;;65.50;47.57;;;;;;;;;;5013583;28;20445;-95
2021/12/16 13:14:41;;;;;;;86.53;51.47;;;;;;;;;;5016029;28;20467;-92
2021/12/16 13:23:19;;;;;;;77.53;49.20;;;;;;;;;;5017998;28;20426;-95
2021/12/16 13:23:29;;;;;;;64.83;46.37;;;;;;;;;;4978756;28;20482;-90
2021/12/16 13:26:22;;;;;;;72.40;48.80;;;;;;;;;;4960861;28;20542;-88
2021/12/16 13:29:05;;;;;;;60.40;44.63;;;;;;;;;;4976540;28;20421;-88
2021/12/16 13:31:40;;;;;;;68.03;47.00;;;;;;;;;;4976576;28;20852;-88
2021/12/16 13:34:25;;;;;;;68.03;45.23;;;;;;;;;;4973511;28;20458;-85
2021/12/16 13:36:56;;;;;;;66.83;47.00;;;;;;;;;;4972048;28;20424;-90
2021/12/16 13:39:25;;;;;;;69.27;46.17;;;;;;;;;;4977373;28;20447;-85
2021/12/16 13:42:00;;;;;;;68.40;44.87;;;;;;;;;;4978395;28;20518;-92
2021/12/16 13:44:45;;;;;;;68.30;44.80;;;;;;;;;;4981276;28;20500;-85
2021/12/16 13:47:24;;;;;;;61.40;45.43;;;;;;;;;;4987250;28;20444;-85
2021/12/16 14:01:28;;;;;;;60.93;44.57;;;;;;;;;;5021820;28;20474;-84
2021/12/16 14:04:07;;;;;;;61.33;47.10;;;;;;;;;;5019014;28;20546;-85
2021/12/16 14:06:39;;;;;;;68.40;49.53;;;;;;;;;;5020497;28;20436;-84
2021/12/16 14:09:16;;;;;;;75.57;50.67;;;;;;;;;;5021978;28;20447;-85
2021/12/16 14:14:51;;;;;;;67.37;48.70;;;;;;;;;;5011927;28;20977;-85
2021/12/16 14:17:54;;;;;;;73.57;45.53;;;;;;;;;;5023731;28;20469;-84
2021/12/16 14:23:16;;;;;;;69.03;47.83;;;;;;;;;;5023942;28;21007;-84
2021/12/16 14:31:48;;;;;;;69.70;46.80;;;;;;;;;;5025883;28;20489;-84
2021/12/16 14:42:48;;;;;;;63.20;45.27;;;;;;;;;;5021488;28;20450;-84
2021/12/16 14:45:32;;;;;;;68.53;47.67;;;;;;;;;;5022231;28;20582;-85
2021/12/16 14:48:10;;;;;;;82.27;50.67;;;;;;;;;;5023108;28;20469;-85
2021/12/16 14:50:41;;;;;;;66.30;47.50;;;;;;;;;;5021865;28;20462;-84
2021/12/16 14:53:13;;;;;;;66.63;45.63;;;;;;;;;;5022931;28;20452;-84
2021/12/16 14:55:41;;;;;;;61.93;46.10;;;;;;;;;;5022712;28;20427;-88
2021/12/16 14:58:08;;;;;;;69.27;47.80;;;;;;;;;;5022626;28;20446;-86
2021/12/16 15:00:48;;;;;;;71.00;47.27;;;;;;;;;;5023879;28;20422;-93
2021/12/16 15:03:17;;;;;;;65.10;46.67;;;;;;;;;;5024929;28;20476;-93
2021/12/16 15:05:48;;;;;;;69.10;47.20;;;;;;;;;;5023779;28;20430;-91
2021/12/16 15:08:21;;;;;;;69.47;49.10;;;;;;;;;;5022222;28;20446;-87
2021/12/16 15:10:49;;;;;;;73.53;46.90;;;;;;;;;;5022195;28;20497;-84
2021/12/16 15:13:23;;;;;;;78.90;48.80;;;;;;;;;;5024583;28;20463;-84
2021/12/16 15:16:09;;;;;;;74.90;48.43;;;;;;;;;;5021280;28;20919;-83
2021/12/16 15:38:34;;;;;;;74.07;48.83;;;;;;;;;;5022352;28;20451;-85
2021/12/16 15:43:49;;;;;;;73.53;48.70;;;;;;;;;;5019818;28;20450;-83
2021/12/16 15:46:18;;;;;;;75.47;50.03;;;;;;;;;;5022056;28;20462;-84
2021/12/16 15:48:47;;;;;;;74.50;48.57;;;;;;;;;;5021189;28;20438;-85
2021/12/16 15:51:16;;;;;;;72.63;47.67;;;;;;;;;;5020664;28;20468;-86
2021/12/16 15:53:45;;;;;;;78.03;47.93;;;;;;;;;;5020876;28;20445;-86
2021/12/16 15:56:15;;;;;;;81.47;49.10;;;;;;;;;;5020917;28;20472;-86
2021/12/16 15:58:45;;;;;;;71.57;47.50;;;;;;;;;;5022687;28;20414;-86
2021/12/16 16:01:13;;;;;;;71.30;47.30;;;;;;;;;;5021926;28;20410;-87
2021/12/16 16:03:41;;;;;;;75.30;46.60;;;;;;;;;;5019836;28;20495;-86
2021/12/16 16:06:10;;;;;;;75.30;49.20;;;;;;;;;;5019942;28;20460;-87
2021/12/16 16:08:39;;;;;;;67.93;47.97;;;;;;;;;;5017680;28;20506;-94
2021/12/16 16:11:09;;;;;;;69.20;47.70;;;;;;;;;;5016725;28;20878;-86
2021/12/16 16:13:41;;;;;;;68.20;46.67;;;;;;;;;;5017594;28;20431;-86
2021/12/16 16:16:09;;;;;;;72.63;47.47;;;;;;;;;;5017055;28;20495;-86
2021/12/16 16:18:40;;;;;;;65.57;48.83;;;;;;;;;;5016830;28;20449;-86
2021/12/16 16:21:15;;;;;;;74.30;49.40;;;;;;;;;;5015665;28;20438;-86
2021/12/16 16:23:47;;;;;;;68.70;46.80;;;;;;;;;;5015257;28;20491;-86
2021/12/16 16:26:17;;;;;;;74.47;49.23;;;;;;;;;;5016837;28;20410;-86
2021/12/16 16:28:46;;;;;;;75.63;49.90;;;;;;;;;;5016409;28;20437;-85
2021/12/16 16:31:16;;;;;;;74.67;46.87;;;;;;;;;;5017375;28;20411;-86
2021/12/16 16:33:43;;;;;;;77.13;51.30;;;;;;;;;;5017841;28;20471;-86
2021/12/16 16:36:12;;;;;;;75.80;48.03;;;;;;;;;;5017954;28;20796;-85
2021/12/16 16:38:42;;;;;;;75.23;48.63;;;;;;;;;;5016636;28;20450;-86
2021/12/16 16:41:13;;;;;;;71.33;47.10;;;;;;;;;;5018473;28;20433;-86
2021/12/16 16:43:43;;;;;;;74.27;47.87;;;;;;;;;;5019258;28;20464;-85
2021/12/16 16:46:17;;;;;;;70.30;48.53;;;;;;;;;;5014681;28;20431;-87
2021/12/16 16:48:54;;;;;;;69.73;47.63;;;;;;;;;;5014603;28;20430;-86
2021/12/16 16:51:26;;;;;;;73.07;48.50;;;;;;;;;;5017168;28;20797;-86
2021/12/16 16:53:56;;;;;;;79.13;51.17;;;;;;;;;;5014691;28;20496;-85
2021/12/16 16:56:34;;;;;;;82.97;50.77;;;;;;;;;;5015791;28;20487;-86
2021/12/16 16:59:05;;;;;;;72.57;50.37;;;;;;;;;;5016295;28;20452;-86
2021/12/16 17:01:33;;;;;;;75.97;48.23;;;;;;;;;;5016130;28;20453;-86
2021/12/16 17:04:01;;;;;;;73.87;47.20;;;;;;;;;;5015513;28;20813;-86
2021/12/16 17:06:30;;;;;;;74.50;48.20;;;;;;;;;;5015713;28;20447;-88
2021/12/16 17:08:58;;;;;;;69.77;48.60;;;;;;;;;;5017016;28;20761;-85
2021/12/16 17:11:26;;;;;;;80.53;51.10;;;;;;;;;;5015113;28;20444;-86
2021/12/16 17:14:00;;;;;;;75.63;48.83;;;;;;;;;;5016170;28;20514;-86
2021/12/16 17:21:52;;;;;;;74.70;50.93;;;;;;;;;;5041156;22;20474;-88
2021/12/16 17:24:21;;;;;;;89.37;52.00;;;;;;;;;;5016415;28;20470;-93
2021/12/16 17:26:50;;;;;;;79.40;50.57;;;;;;;;;;5017596;28;20446;-96
2021/12/16 17:29:21;;;;;;;79.20;51.00;;;;;;;;;;5015165;28;20484;-94